createdAt,value
2022-09-16T00:00:48.993Z,99.9
2022-09-16T00:02:51.096Z,99.9
2022-09-16T00:04:56.519Z,99.9
2022-09-16T00:06:58.725Z,99.9
2022-09-16T00:09:00.901Z,99.9
2022-09-16T00:11:03.087Z,99.9
2022-09-16T00:13:05.276Z,99.9
2022-09-16T00:15:07.537Z,99.9
2022-09-16T00:17:09.674Z,99.9
2022-09-16T00:19:15.107Z,99.9
2022-09-16T00:21:17.285Z,99.9
2022-09-16T00:23:19.443Z,99.9
2022-09-16T00:25:21.658Z,99.9
2022-09-16T00:27:23.840Z,99.9
2022-09-16T00:29:26.026Z,99.9
2022-09-16T00:31:28.240Z,99.9
2022-09-16T00:33:33.645Z,99.9
2022-09-16T00:35:35.815Z,99.9
2022-09-16T00:37:37.987Z,99.9
2022-09-16T00:38:40.733Z,99.9
2022-09-16T00:40:42.892Z,99.9
2022-09-16T00:42:45.103Z,99.9
2022-09-16T00:46:52.790Z,99.9
2022-09-16T00:48:54.907Z,99.9
2022-09-16T00:50:57.083Z,99.9
2022-09-16T00:55:01.475Z,99.9
2022-09-16T00:57:03.648Z,99.9
2022-09-16T00:59:05.838Z,99.9
2022-09-16T01:01:11.322Z,99.9
2022-09-16T01:03:13.452Z,99.9
2022-09-16T01:05:15.644Z,99.9
2022-09-16T01:07:17.831Z,99.9
2022-09-16T01:09:20.032Z,99.9
2022-09-16T01:11:22.214Z,99.9
2022-09-16T01:13:24.441Z,99.9
2022-09-16T01:15:29.862Z,99.9
2022-09-16T01:17:32.043Z,99.9
2022-09-16T01:19:34.213Z,99.9
2022-09-16T01:21:36.418Z,99.9
2022-09-16T01:23:38.581Z,99.9
2022-09-16T01:25:40.783Z,99.9
2022-09-16T01:27:42.983Z,99.9
2022-09-16T01:29:48.406Z,99.9
2022-09-16T01:31:50.630Z,99.9
2022-09-16T01:33:52.770Z,99.9
2022-09-16T01:34:55.470Z,99.9
2022-09-16T01:36:57.672Z,99.9
2022-09-16T01:38:59.836Z,99.9
2022-09-16T01:43:07.461Z,99.9
2022-09-16T01:45:09.661Z,99.9
2022-09-16T01:49:14.055Z,99.9
2022-09-16T01:51:16.221Z,99.9
2022-09-16T01:57:26.031Z,99.9
2022-09-16T01:59:28.218Z,99.9
2022-09-16T02:05:34.760Z,99.9
2022-09-16T02:09:39.135Z,99.9
2022-09-16T02:11:44.575Z,99.9
2022-09-16T02:13:46.757Z,99.9
2022-09-16T02:15:49.002Z,99.9
2022-09-16T02:17:51.123Z,99.9
2022-09-16T02:19:53.294Z,99.9
2022-09-16T02:21:55.461Z,99.9
2022-09-16T02:23:59.227Z,99.9
2022-09-16T02:26:04.625Z,99.9
2022-09-16T02:28:06.828Z,99.9
2022-09-16T02:31:11.806Z,99.9
2022-09-16T02:33:13.923Z,99.9
2022-09-16T02:35:16.104Z,99.9
2022-09-16T02:37:18.313Z,99.9
2022-09-16T02:39:23.720Z,99.9
2022-09-16T02:41:25.885Z,99.9
2022-09-16T02:43:28.113Z,99.9
2022-09-16T02:45:30.285Z,99.9
2022-09-16T02:47:32.455Z,99.9
2022-09-16T02:49:34.629Z,99.9
2022-09-16T02:51:36.824Z,99.9
2022-09-16T03:03:53.187Z,99.9
2022-09-16T03:12:05.164Z,99.9
2022-09-16T03:14:07.349Z,99.9
2022-09-16T03:16:09.592Z,99.9
2022-09-16T03:20:13.910Z,99.9
2022-09-16T03:22:19.334Z,99.9
2022-09-16T03:24:21.525Z,99.9
2022-09-16T03:26:23.674Z,99.9
2022-09-16T03:30:54.923Z,99.9
2022-09-16T03:32:57.083Z,99.9
2022-09-16T03:35:02.519Z,99.9
2022-09-16T03:37:04.687Z,99.9
2022-09-16T03:39:06.853Z,99.9
2022-09-16T03:41:09.056Z,99.9
2022-09-16T03:43:11.239Z,99.9
2022-09-16T03:45:13.420Z,99.9
2022-09-16T03:47:15.607Z,99.9
2022-09-16T03:49:21.027Z,99.9
2022-09-16T03:53:25.381Z,99.9
2022-09-16T03:55:27.585Z,99.9
2022-09-16T03:57:29.772Z,99.9
2022-09-16T03:59:31.986Z,99.9
2022-09-16T04:01:34.228Z,99.9
2022-09-16T04:03:39.585Z,99.9
2022-09-16T04:05:41.775Z,99.9
2022-09-16T04:07:43.967Z,99.9
2022-09-16T04:09:46.137Z,99.9
2022-09-16T04:11:48.339Z,99.9
2022-09-16T04:13:50.509Z,99.9
2022-09-16T04:15:52.764Z,99.9
2022-09-16T04:17:58.104Z,99.9
2022-09-16T04:20:00.322Z,99.9
2022-09-16T04:22:02.481Z,99.9
2022-09-16T04:23:05.204Z,99.9
2022-09-16T04:25:07.392Z,99.9
2022-09-16T04:27:09.579Z,99.9
2022-09-16T04:31:17.278Z,99.9
2022-09-16T04:33:19.366Z,99.9
2022-09-16T04:39:25.901Z,99.9
2022-09-16T04:41:28.053Z,99.9
2022-09-16T04:45:35.661Z,99.9
2022-09-16T04:47:37.827Z,99.9
2022-09-16T04:49:40.002Z,99.9
2022-09-16T04:53:44.452Z,99.9
2022-09-16T04:55:46.506Z,99.9
2022-09-16T04:57:48.682Z,99.9
2022-09-16T04:59:54.095Z,99.9
2022-09-16T05:01:56.322Z,99.9
2022-09-16T05:03:58.460Z,99.9
2022-09-16T05:06:00.644Z,99.9
2022-09-16T05:10:04.982Z,99.9
2022-09-16T05:12:07.121Z,99.9
2022-09-16T05:14:12.551Z,99.9
2022-09-16T05:16:14.861Z,99.9
2022-09-16T05:18:16.923Z,99.9
2022-09-16T05:19:19.644Z,99.9
2022-09-16T05:21:21.811Z,99.9
2022-09-16T05:23:23.967Z,99.9
2022-09-16T05:25:26.158Z,99.9
2022-09-16T05:27:31.570Z,99.9
2022-09-16T05:29:33.737Z,99.9
2022-09-16T05:35:40.250Z,99.9
2022-09-16T05:37:42.412Z,99.9
2022-09-16T05:39:44.607Z,99.9
2022-09-16T05:41:50.001Z,99.9
2022-09-16T05:43:52.174Z,99.9
2022-09-16T05:49:58.699Z,99.9
2022-09-16T05:52:00.823Z,99.9
2022-09-16T05:54:02.999Z,99.9
2022-09-16T06:00:12.765Z,99.9
2022-09-16T06:02:14.951Z,99.9
2022-09-16T06:04:17.099Z,99.9
2022-09-16T06:08:21.431Z,99.9
2022-09-16T06:10:26.837Z,99.9
2022-09-16T06:14:31.150Z,99.9
2022-09-16T06:17:36.025Z,99.9
2022-09-16T06:19:38.211Z,99.9
2022-09-16T06:23:45.754Z,99.9
2022-09-16T06:25:47.951Z,99.9
2022-09-16T06:27:50.118Z,99.9
2022-09-16T06:31:54.441Z,99.9
2022-09-16T06:33:56.619Z,99.9
2022-09-16T06:35:58.768Z,99.9
2022-09-16T06:38:04.163Z,99.9
2022-09-16T06:40:06.430Z,99.9
2022-09-16T06:42:08.524Z,99.9
2022-09-16T06:44:10.688Z,99.9
2022-09-16T06:46:12.962Z,99.9
2022-09-16T06:48:15.018Z,99.9
2022-09-16T06:50:17.222Z,99.9
2022-09-16T06:56:26.981Z,99.9
2022-09-16T06:58:29.146Z,99.9
2022-09-16T07:00:31.344Z,99.9
2022-09-16T07:02:33.593Z,99.9
2022-09-16T07:07:08.301Z,99.9
2022-09-16T07:08:43.279Z,99.9
2022-09-16T07:13:14.370Z,99.9
2022-09-16T07:15:16.602Z,99.9
2022-09-16T07:17:18.775Z,99.9
2022-09-16T07:19:24.189Z,99.9
2022-09-16T07:21:26.374Z,99.9
2022-09-16T07:23:28.575Z,99.9
2022-09-16T07:25:35.577Z,99.9
2022-09-16T07:27:32.762Z,99.9
2022-09-16T07:29:34.971Z,99.9
2022-09-16T07:31:37.169Z,99.9
2022-09-16T07:33:42.598Z,99.9
2022-09-16T07:35:44.798Z,99.9
2022-09-16T07:37:47.017Z,99.9
2022-09-16T07:39:49.256Z,99.9
2022-09-16T07:41:51.402Z,99.9
2022-09-16T07:43:53.587Z,99.9
2022-09-16T07:45:55.940Z,99.9
2022-09-16T07:50:03.482Z,99.9
2022-09-16T07:52:05.643Z,99.9
2022-09-16T07:54:07.861Z,99.9
2022-09-16T07:56:10.042Z,99.9
2022-09-16T07:58:12.259Z,99.9
2022-09-16T08:00:14.455Z,99.9
2022-09-16T08:02:20.008Z,99.9
2022-09-16T08:04:22.107Z,99.9
2022-09-16T08:06:24.309Z,99.9
2022-09-16T08:09:41.019Z,99.9
2022-09-16T08:13:33.533Z,99.9
2022-09-16T08:15:40.416Z,99.9
2022-09-16T08:17:42.650Z,99.9
2022-09-16T08:19:44.852Z,99.9
2022-09-16T08:21:46.969Z,99.9
2022-09-16T08:23:49.174Z,99.9
2022-09-16T08:25:51.378Z,99.9
2022-09-16T08:27:55.720Z,99.9
2022-09-16T08:29:59.053Z,99.9
2022-09-16T08:32:01.314Z,99.9
2022-09-16T08:34:03.481Z,99.9
2022-09-16T08:36:05.574Z,99.9
2022-09-16T08:38:07.706Z,99.9
2022-09-16T08:40:09.972Z,99.9
2022-09-16T08:42:12.122Z,99.9
2022-09-16T08:44:17.456Z,99.9
2022-09-16T08:46:19.584Z,99.9
2022-09-16T08:48:26.456Z,99.9
2022-09-16T08:50:23.870Z,99.9
2022-09-16T08:52:25.976Z,99.9
2022-09-16T08:54:28.087Z,99.9
2022-09-16T08:56:30.195Z,99.9
2022-09-16T08:58:35.453Z,99.9
2022-09-16T09:00:37.567Z,99.9
2022-09-16T09:03:42.299Z,99.9
2022-09-16T09:07:46.500Z,99.9
2022-09-16T09:09:48.619Z,99.9
2022-09-16T09:11:54.053Z,99.9
2022-09-16T09:13:56.036Z,99.9
2022-09-16T09:15:58.174Z,99.9
2022-09-16T09:18:00.248Z,99.9
2022-09-16T09:20:02.379Z,99.9
2022-09-16T09:22:04.464Z,99.9
2022-09-16T09:26:11.868Z,99.9
2022-09-16T09:30:16.134Z,99.9
2022-09-16T09:34:20.326Z,99.9
2022-09-16T09:36:22.489Z,99.9
2022-09-16T09:38:24.593Z,99.9
2022-09-16T09:40:29.983Z,99.9
2022-09-16T09:42:31.984Z,99.9
2022-09-16T09:44:34.130Z,99.9
2022-09-16T09:46:36.245Z,99.9
2022-09-16T09:48:38.339Z,99.9
2022-09-16T09:50:40.446Z,99.9
2022-09-16T09:52:42.569Z,99.9
2022-09-16T09:54:47.854Z,99.9
2022-09-16T09:56:49.975Z,99.9
2022-09-16T09:58:52.109Z,99.9
2022-09-16T09:59:54.746Z,99.9
2022-09-16T10:01:56.888Z,99.9
2022-09-16T10:03:58.988Z,99.9
2022-09-16T10:06:01.106Z,99.9
2022-09-16T10:10:08.457Z,99.9
2022-09-16T10:12:10.562Z,99.9
2022-09-16T10:14:12.712Z,99.9
2022-09-16T10:16:14.911Z,99.9
2022-09-16T10:18:16.962Z,99.9
2022-09-16T10:20:19.076Z,99.9
2022-09-16T10:22:24.341Z,99.9
2022-09-16T10:24:26.440Z,99.9
2022-09-16T10:26:28.562Z,99.9
2022-09-16T10:28:30.680Z,99.9
2022-09-16T10:32:34.914Z,99.9
2022-09-16T10:34:37.068Z,99.9
2022-09-16T10:36:42.361Z,99.9
2022-09-16T10:38:44.438Z,99.9
2022-09-16T10:44:50.806Z,99.9
2022-09-16T10:51:00.381Z,99.9
2022-09-16T10:53:02.498Z,99.9
2022-09-16T10:55:04.581Z,99.9
2022-09-16T10:59:35.369Z,99.9
2022-09-16T11:01:40.222Z,99.9
2022-09-16T11:03:42.785Z,99.9
2022-09-16T11:05:44.908Z,99.9
2022-09-16T11:07:47.022Z,99.9
2022-09-16T11:09:49.131Z,99.9
2022-09-16T11:11:51.268Z,99.9
2022-09-16T11:13:53.449Z,99.9
2022-09-16T11:15:55.521Z,99.9
2022-09-16T11:18:00.777Z,99.9
2022-09-16T11:20:02.877Z,99.9
2022-09-16T11:22:05.043Z,99.9
2022-09-16T11:24:07.158Z,99.9
2022-09-16T11:26:09.278Z,99.9
2022-09-16T11:28:11.367Z,99.9
2022-09-16T11:32:18.797Z,99.9
2022-09-16T11:34:20.871Z,99.9
2022-09-16T11:40:27.313Z,99.9
2022-09-16T11:50:41.014Z,99.9
2022-09-16T11:51:43.693Z,99.9
2022-09-16T11:53:46.654Z,99.9
2022-09-16T11:55:47.902Z,99.9
2022-09-16T11:57:50.027Z,99.9
2022-09-16T11:59:55.327Z,99.9
2022-09-16T12:01:57.462Z,99.9
2022-09-16T12:03:59.563Z,99.9
2022-09-16T12:06:01.729Z,99.9
2022-09-16T12:08:03.805Z,99.9
2022-09-16T12:10:05.963Z,99.8
2022-09-16T12:12:08.055Z,99.8
2022-09-16T12:14:13.343Z,99.1
2022-09-16T12:18:17.605Z,98.2
2022-09-16T12:20:19.728Z,97.9
2022-09-16T12:22:21.837Z,97.5
2022-09-16T12:24:23.984Z,97.3
2022-09-16T12:26:26.097Z,97.4
2022-09-16T12:28:31.339Z,97.8
2022-09-16T12:34:37.748Z,99
2022-09-16T12:38:41.994Z,99.5
2022-09-16T12:40:44.086Z,99.7
2022-09-16T12:42:49.344Z,99.9
2022-09-16T12:44:51.479Z,99.9
2022-09-16T12:47:56.256Z,99.9
2022-09-16T12:49:58.393Z,99.9
2022-09-16T12:52:00.525Z,99.9
2022-09-16T12:54:02.620Z,99.9
2022-09-16T12:56:07.866Z,99.9
2022-09-16T12:58:10.026Z,99.9
2022-09-16T13:00:12.152Z,99.9
2022-09-16T13:02:14.377Z,99.9
2022-09-16T13:04:16.368Z,99.9
2022-09-16T13:06:18.492Z,99.9
2022-09-16T13:08:20.641Z,99.9
2022-09-16T13:10:40.539Z,99.9
2022-09-16T13:12:44.384Z,99.9
2022-09-16T13:14:30.165Z,99.9
2022-09-16T13:16:32.253Z,99.9
2022-09-16T13:20:36.537Z,99.9
2022-09-16T13:22:38.666Z,99.9
2022-09-16T13:24:43.945Z,99.9
2022-09-16T13:26:46.060Z,99.9
2022-09-16T13:28:48.185Z,99.9
2022-09-16T13:30:50.337Z,99.9
2022-09-16T13:32:52.451Z,99.9
2022-09-16T13:34:54.562Z,99.9
2022-09-16T13:36:56.680Z,99.9
2022-09-16T13:39:01.974Z,99.9
2022-09-16T13:41:04.062Z,99.9
2022-09-16T13:43:06.205Z,99.9
2022-09-16T13:44:08.841Z,99.9
2022-09-16T13:46:11.066Z,99.9
2022-09-16T13:50:15.204Z,99.9
2022-09-16T13:52:20.474Z,99.9
2022-09-16T13:54:22.630Z,99.9
2022-09-16T14:00:33.728Z,99.9
2022-09-16T14:02:31.224Z,99.9
2022-09-16T14:04:33.201Z,99.9
2022-09-16T14:06:40.061Z,99.9
2022-09-16T14:08:42.150Z,99.9
2022-09-16T14:10:44.260Z,99.9
2022-09-16T14:12:46.406Z,99.9
2022-09-16T14:14:48.623Z,99.9
2022-09-16T14:16:50.632Z,99.9
2022-09-16T14:18:52.793Z,99.9
2022-09-16T14:20:58.063Z,99.9
2022-09-16T14:23:00.192Z,99.9
2022-09-16T14:25:06.593Z,99.9
2022-09-16T14:27:04.435Z,99.9
2022-09-16T14:29:06.548Z,99.9
2022-09-16T14:31:08.809Z,99.9
2022-09-16T14:33:10.801Z,99.9
2022-09-16T14:35:16.089Z,99.9
2022-09-16T14:37:18.216Z,99.9
2022-09-16T14:39:20.327Z,99.9
2022-09-16T14:41:49.008Z,99.9
2022-09-16T14:43:51.149Z,99.9
2022-09-16T14:47:58.548Z,99.9
2022-09-16T14:50:00.672Z,99.9
2022-09-16T14:52:02.808Z,99.9
2022-09-16T14:54:13.162Z,99.9
2022-09-16T14:56:07.088Z,99.9
2022-09-16T14:58:09.170Z,99.9
2022-09-16T15:00:12.024Z,99.9
2022-09-16T15:02:16.665Z,99.9
2022-09-16T15:04:18.899Z,99.9
2022-09-16T15:06:20.884Z,99.9
2022-09-16T15:08:22.992Z,99.9
2022-09-16T15:10:25.138Z,99.9
2022-09-16T15:12:27.272Z,99.9
2022-09-16T15:14:29.399Z,99.9
2022-09-16T15:18:36.784Z,99.9
2022-09-16T15:20:38.900Z,99.9
2022-09-16T15:22:41.021Z,99.9
2022-09-16T15:24:43.129Z,99.9
2022-09-16T15:26:45.251Z,99.7
2022-09-16T15:30:52.687Z,99.6
2022-09-16T15:32:54.759Z,99.6
2022-09-16T15:44:11.681Z,99.9
2022-09-16T15:46:13.345Z,99.9
2022-09-16T15:48:15.397Z,99.9
2022-09-16T15:50:17.540Z,99.9
2022-09-16T15:52:19.664Z,99.9
2022-09-16T15:54:21.795Z,99.9
2022-09-16T15:56:23.918Z,99.9
2022-09-16T15:58:29.168Z,99.9
2022-09-16T16:00:31.298Z,99.9
2022-09-16T16:02:33.450Z,99.9
2022-09-16T16:04:35.550Z,99.9
2022-09-16T16:06:37.683Z,99.9
2022-09-16T16:08:39.816Z,99.9
2022-09-16T16:10:41.941Z,99.9
2022-09-16T16:12:47.207Z,99.9
2022-09-16T16:14:49.353Z,99.9
2022-09-16T16:17:11.663Z,99.9
2022-09-16T16:18:53.602Z,99.9
2022-09-16T16:22:57.995Z,99.9
2022-09-16T16:24:59.968Z,99.9
2022-09-16T16:27:05.256Z,99.9
2022-09-16T16:32:12.139Z,99.9
2022-09-16T16:34:14.276Z,99.9
2022-09-16T16:36:16.382Z,99.9
2022-09-16T16:38:18.514Z,99.9
2022-09-16T16:40:23.837Z,99.9
2022-09-16T16:42:25.916Z,99.9
2022-09-16T16:44:28.065Z,99.9
2022-09-16T16:46:30.227Z,99.9
2022-09-16T16:48:32.311Z,99.9
2022-09-16T16:50:34.451Z,99.9
2022-09-16T16:52:36.546Z,99.9
2022-09-16T16:54:41.833Z,99.9
2022-09-16T16:56:43.950Z,99.9
2022-09-16T16:58:46.099Z,99.9
2022-09-16T17:00:48.207Z,99.9
2022-09-16T17:02:50.374Z,99.9
2022-09-16T17:04:52.458Z,99.9
2022-09-16T17:07:21.573Z,99.9
2022-09-16T17:08:59.945Z,99.9
2022-09-16T17:11:01.976Z,99.9
2022-09-16T17:13:04.094Z,99.9
2022-09-16T17:15:06.329Z,99.9
2022-09-16T17:17:08.440Z,99.9
2022-09-16T17:19:10.572Z,99.9
2022-09-16T17:21:12.678Z,99.9
2022-09-16T17:23:17.939Z,99.9
2022-09-16T17:25:20.075Z,99.9
2022-09-16T17:27:22.183Z,99.9
2022-09-16T17:28:24.822Z,99.9
2022-09-16T17:30:26.960Z,99.9
2022-09-16T17:32:29.088Z,99.9
2022-09-16T17:34:31.349Z,99.9
2022-09-16T17:36:36.566Z,99.9
2022-09-16T17:44:45.135Z,99.9
2022-09-16T17:46:47.290Z,99.9
2022-09-16T17:50:54.621Z,99.9
2022-09-16T17:52:56.715Z,99.9
2022-09-16T17:54:58.889Z,99.9
2022-09-16T17:57:01.087Z,99.9
2022-09-16T17:59:03.194Z,99.9
2022-09-16T18:01:05.412Z,99.9
2022-09-16T18:03:07.675Z,99.9
2022-09-16T18:05:13.115Z,99.9
2022-09-16T18:07:15.179Z,99.9
2022-09-16T18:09:17.342Z,99.9
2022-09-16T18:11:19.533Z,99.9
2022-09-16T18:13:21.763Z,99.9
2022-09-16T18:15:23.874Z,99.9
2022-09-16T18:17:26.094Z,99.9
2022-09-16T18:19:31.466Z,99.9
2022-09-16T18:21:33.671Z,99.9
2022-09-16T18:23:35.885Z,99.9
2022-09-16T18:26:04.722Z,99.9
2022-09-16T18:28:06.934Z,99.9
2022-09-16T18:30:09.079Z,99.9
2022-09-16T18:32:14.520Z,99.9
2022-09-16T18:34:16.750Z,99.9
2022-09-16T18:36:18.962Z,99.9
2022-09-16T18:38:21.161Z,99.9
2022-09-16T18:42:25.591Z,99.9
2022-09-16T18:44:27.807Z,99.9
2022-09-16T18:52:39.620Z,99.9
2022-09-16T18:59:16.850Z,99.9
2022-09-16T19:00:51.607Z,99.9
2022-09-16T19:02:53.791Z,99.9
2022-09-16T19:04:56.034Z,99.9
2022-09-16T19:06:58.225Z,99.9
2022-09-16T19:09:00.445Z,99.9
2022-09-16T19:11:02.633Z,99.9
2022-09-16T19:13:04.775Z,99.9
2022-09-16T19:15:10.225Z,99.9
2022-09-16T19:17:12.515Z,99.9
2022-09-16T19:19:14.652Z,99.9
2022-09-16T19:20:17.368Z,99.9
2022-09-16T19:22:19.560Z,99.9
2022-09-16T19:24:21.686Z,99.9
2022-09-16T19:26:23.923Z,99.9
2022-09-16T19:28:29.369Z,99.9
2022-09-16T19:30:31.559Z,99.9
2022-09-16T19:32:33.806Z,99.9
2022-09-16T19:34:35.968Z,99.9
2022-09-16T19:36:38.208Z,99.9
2022-09-16T19:40:42.599Z,99.9
2022-09-16T19:42:47.965Z,99.9
2022-09-16T19:52:58.960Z,99.9
2022-09-16T19:55:01.190Z,99.9
2022-09-16T19:59:10.394Z,99.9
2022-09-16T20:01:12.604Z,99.9
2022-09-16T20:03:14.764Z,99.9
2022-09-16T20:05:16.946Z,99.9
2022-09-16T20:07:19.168Z,99.9
2022-09-16T20:09:21.388Z,99.9
2022-09-16T20:11:26.823Z,99.9
2022-09-16T20:13:28.994Z,99.9
2022-09-16T20:15:31.194Z,99.9
2022-09-16T20:16:34.009Z,99.9
2022-09-16T20:18:36.038Z,99.9
2022-09-16T20:20:38.219Z,99.9
2022-09-16T20:22:40.403Z,99.9
2022-09-16T20:24:45.833Z,99.9
2022-09-16T20:26:48.041Z,99.9
2022-09-16T20:28:50.215Z,99.9
2022-09-16T20:30:52.377Z,99.9
2022-09-16T20:32:54.569Z,99.9
2022-09-16T20:34:56.739Z,99.9
2022-09-16T20:36:58.937Z,99.9
2022-09-16T20:39:04.343Z,99.9
2022-09-16T20:41:06.536Z,99.9
2022-09-16T20:43:08.710Z,99.9
2022-09-16T20:45:10.897Z,99.9
2022-09-16T20:47:13.095Z,99.9
2022-09-16T20:49:15.292Z,99.9
2022-09-16T20:51:17.469Z,99.9
2022-09-16T20:55:25.085Z,99.9
2022-09-16T20:57:27.273Z,99.9
2022-09-16T20:59:29.456Z,99.9
2022-09-16T21:01:31.671Z,99.9
2022-09-16T21:03:33.808Z,99.9
2022-09-16T21:05:36.010Z,99.9
2022-09-16T21:07:41.451Z,99.9
2022-09-16T21:09:43.621Z,99.9
2022-09-16T21:11:45.804Z,99.9
2022-09-16T21:18:55.049Z,99.9
2022-09-16T21:23:02.656Z,99.9
2022-09-16T21:25:04.842Z,99.9
2022-09-16T21:27:07.001Z,99.9
2022-09-16T21:29:09.206Z,99.9
2022-09-16T21:31:11.422Z,99.9
2022-09-16T21:33:13.555Z,99.9
2022-09-16T21:35:19.024Z,99.9
2022-09-16T21:37:21.200Z,99.9
2022-09-16T21:41:25.560Z,99.9
2022-09-16T21:43:27.748Z,99.9
2022-09-16T21:45:29.909Z,99.9
2022-09-16T21:47:32.117Z,99.9
2022-09-16T21:49:37.544Z,99.9
2022-09-16T21:55:44.099Z,99.9
2022-09-16T21:57:46.286Z,99.9
2022-09-16T21:59:48.461Z,99.9
2022-09-16T22:01:50.781Z,99.9
2022-09-16T22:03:56.084Z,99.9
2022-09-16T22:05:58.265Z,99.9
2022-09-16T22:08:00.435Z,99.9
2022-09-16T22:14:33.752Z,99.9
2022-09-16T22:16:39.174Z,99.9
2022-09-16T22:20:43.551Z,99.9
2022-09-16T22:22:45.743Z,99.9
2022-09-16T22:24:47.949Z,99.9
2022-09-16T22:26:50.115Z,99.9
2022-09-16T22:32:59.913Z,99.9
2022-09-16T22:35:02.125Z,99.9
2022-09-16T22:37:04.296Z,99.9
2022-09-16T22:39:06.492Z,99.9
2022-09-16T22:41:08.655Z,99.9
2022-09-16T22:43:10.827Z,99.9
2022-09-16T22:45:16.253Z,99.9
2022-09-16T22:47:18.436Z,99.9
2022-09-16T22:49:20.634Z,99.9
2022-09-16T22:51:22.808Z,99.9
2022-09-16T22:53:24.983Z,99.9
2022-09-16T22:55:27.144Z,99.9
2022-09-16T22:57:29.324Z,99.9
2022-09-16T22:59:34.770Z,99.9
2022-09-16T23:01:37.059Z,99.9
2022-09-16T23:03:39.168Z,99.9
2022-09-16T23:04:41.841Z,99.9
2022-09-16T23:06:44.010Z,99.9
2022-09-16T23:08:46.199Z,99.9
2022-09-16T23:10:48.356Z,99.9
2022-09-16T23:12:53.783Z,99.9
2022-09-16T23:14:55.958Z,99.9
2022-09-16T23:16:58.133Z,99.9
2022-09-16T23:19:00.308Z,99.9
2022-09-16T23:21:02.468Z,99.9
2022-09-16T23:23:04.644Z,99.9
2022-09-16T23:25:06.806Z,99.9
2022-09-16T23:29:14.381Z,99.9
2022-09-16T23:31:16.639Z,99.9
2022-09-16T23:37:23.062Z,99.9
2022-09-16T23:39:25.242Z,99.9
2022-09-16T23:45:34.974Z,99.9
2022-09-16T23:47:37.134Z,99.9
2022-09-16T23:49:39.304Z,99.9
2022-09-16T23:53:43.660Z,99.9
2022-09-16T23:57:51.286Z,99.9
2022-09-16T23:59:53.470Z,99.9
